createdAt,value
2023-04-23T00:00:56.175Z,1.6615
2023-04-23T00:01:57.818Z,1.8000
2023-04-23T00:02:59.873Z,1.8462
2023-04-23T00:04:01.474Z,1.9692
2023-04-23T00:05:02.784Z,1.8923
2023-04-23T00:06:04.467Z,1.9385
2023-04-23T00:07:06.013Z,1.6923
2023-04-23T00:08:07.794Z,1.7077
2023-04-23T00:09:09.335Z,1.6615
2023-04-23T00:10:11.007Z,1.6769
2023-04-23T00:11:13.192Z,1.8000
2023-04-23T00:12:14.282Z,1.7538
2023-04-23T00:13:15.909Z,1.6462
2023-04-23T00:14:17.629Z,1.8615
2023-04-23T00:15:19.719Z,1.6769
2023-04-23T00:16:20.887Z,1.6923
2023-04-23T00:17:22.492Z,1.9538
2023-04-23T00:18:24.154Z,1.8308
2023-04-23T00:19:25.828Z,1.7538
2023-04-23T00:20:27.405Z,1.9231
2023-04-23T00:21:29.030Z,1.7846
2023-04-23T00:22:30.737Z,1.7692
2023-04-23T00:23:32.447Z,1.7077
2023-04-23T00:24:34.330Z,1.7231
2023-04-23T00:25:35.590Z,1.6462
2023-04-23T00:26:37.313Z,1.7846
2023-04-23T00:27:38.931Z,1.8615
2023-04-23T00:28:41.340Z,1.7231
2023-04-23T00:29:42.215Z,1.7538
2023-04-23T00:30:43.883Z,1.8462
2023-04-23T00:31:45.485Z,2.0308
2023-04-23T00:32:47.330Z,1.9385
2023-04-23T00:33:48.736Z,1.9231
2023-04-23T00:34:50.770Z,2.0000
2023-04-23T00:35:52.018Z,1.7846
2023-04-23T00:36:53.733Z,1.9077
2023-04-23T00:37:55.290Z,1.6769
2023-04-23T00:38:57.027Z,1.6615
2023-04-23T00:39:58.764Z,1.7231
2023-04-23T00:41:00.353Z,1.6154
2023-04-23T00:42:01.878Z,1.7231
2023-04-23T00:43:03.568Z,1.7077
2023-04-23T00:44:05.325Z,1.8769
2023-04-23T00:45:06.861Z,1.8923
2023-04-23T00:46:09.314Z,1.8769
2023-04-23T00:47:10.072Z,1.6769
2023-04-23T00:48:11.805Z,1.6462
2023-04-23T00:49:14.323Z,1.7846
2023-04-23T00:50:15.163Z,1.6000
2023-04-23T00:51:17.370Z,1.8308
2023-04-23T00:52:18.359Z,1.7692
2023-04-23T00:53:19.982Z,1.5692
2023-04-23T00:54:21.570Z,1.6769
2023-04-23T00:55:23.331Z,1.8308
2023-04-23T00:56:24.960Z,1.8923
2023-04-23T00:57:26.594Z,1.8308
2023-04-23T00:58:28.140Z,1.7538
2023-04-23T00:59:29.817Z,1.8154
2023-04-23T01:00:32.319Z,1.7077
2023-04-23T01:01:33.251Z,1.8615
2023-04-23T01:02:34.812Z,1.6769
2023-04-23T01:03:36.682Z,1.4923
2023-04-23T01:04:38.177Z,1.5846
2023-04-23T01:05:39.853Z,1.6462
2023-04-23T01:06:41.472Z,1.9077
2023-04-23T01:07:43.079Z,1.4923
2023-04-23T01:08:44.727Z,1.6615
2023-04-23T01:09:46.396Z,1.7385
2023-04-23T01:10:48.102Z,1.7846
2023-04-23T01:11:49.755Z,1.8462
2023-04-23T01:12:51.277Z,1.7538
2023-04-23T01:13:52.991Z,1.5538
2023-04-23T01:14:54.538Z,1.7692
2023-04-23T01:15:56.268Z,1.9231
2023-04-23T01:16:58.874Z,2.2000
2023-04-23T01:17:59.593Z,1.8154
2023-04-23T01:19:01.084Z,1.7077
2023-04-23T01:20:02.746Z,1.6000
2023-04-23T01:21:04.467Z,1.4154
2023-04-23T01:22:06.139Z,1.5231
2023-04-23T01:23:07.763Z,1.5231
2023-04-23T01:24:09.367Z,1.7231
2023-04-23T01:25:10.977Z,1.8769
2023-04-23T01:26:13.592Z,1.8769
2023-04-23T01:27:14.341Z,1.7846
2023-04-23T01:28:15.956Z,1.8462
2023-04-23T01:29:17.599Z,1.6462
2023-04-23T01:30:19.232Z,1.9231
2023-04-23T01:31:20.966Z,1.6154
2023-04-23T01:32:22.647Z,1.6154
2023-04-23T01:33:24.118Z,1.6462
2023-04-23T01:34:26.778Z,1.6462
2023-04-23T01:35:27.343Z,1.5385
2023-04-23T01:36:29.359Z,1.6000
2023-04-23T01:37:30.818Z,1.8000
2023-04-23T01:38:33.295Z,1.7538
2023-04-23T01:39:33.996Z,1.6462
2023-04-23T01:40:36.014Z,1.5846
2023-04-23T01:41:37.237Z,1.6154
2023-04-23T01:42:38.944Z,1.8154
2023-04-23T01:43:40.558Z,1.8000
2023-04-23T01:44:42.568Z,1.6462
2023-04-23T01:45:43.914Z,2.0462
2023-04-23T01:46:45.432Z,2.0000
2023-04-23T01:47:47.224Z,2.1846
2023-04-23T01:48:48.762Z,1.7846
2023-04-23T01:49:50.397Z,1.8154
2023-04-23T01:50:52.141Z,1.8154
2023-04-23T01:51:53.672Z,1.7231
2023-04-23T01:52:55.406Z,1.8154
2023-04-23T01:53:56.918Z,1.6462
2023-04-23T01:54:59.038Z,1.6615
2023-04-23T01:56:00.236Z,1.8615
2023-04-23T01:57:01.880Z,1.8462
2023-04-23T01:58:03.505Z,1.9538
2023-04-23T01:59:06.466Z,1.9077
2023-04-23T02:00:06.760Z,1.6923
2023-04-23T02:01:09.492Z,1.8154
2023-04-23T02:02:10.069Z,1.4769
2023-04-23T02:03:11.892Z,1.6000
2023-04-23T02:04:13.380Z,1.6923
2023-04-23T02:05:15.181Z,1.7385
2023-04-23T02:06:16.613Z,1.7692
2023-04-23T02:07:18.286Z,1.5385
2023-04-23T02:08:19.938Z,1.6154
2023-04-23T02:09:22.649Z,1.6615
2023-04-23T02:10:23.163Z,1.8615
2023-04-23T02:11:25.096Z,1.7692
2023-04-23T02:12:26.584Z,1.8615
2023-04-23T02:13:28.514Z,1.8462
2023-04-23T02:14:29.756Z,1.9692
2023-04-23T02:15:31.487Z,1.7077
2023-04-23T02:16:33.136Z,1.7077
2023-04-23T02:17:34.784Z,1.8769
2023-04-23T02:18:36.366Z,1.5538
2023-04-23T02:19:38.083Z,1.5692
2023-04-23T02:20:39.666Z,1.6615
2023-04-23T02:21:41.422Z,1.6462
2023-04-23T02:22:43.882Z,1.7231
2023-04-23T02:23:44.664Z,1.6769
2023-04-23T02:24:46.306Z,1.7231
2023-04-23T02:25:48.004Z,1.7846
2023-04-23T02:26:49.549Z,1.8923
2023-04-23T02:27:51.218Z,1.5385
2023-04-23T02:28:53.010Z,1.6000
2023-04-23T02:29:54.499Z,1.6615
2023-04-23T02:30:56.090Z,1.5538
2023-04-23T02:31:57.930Z,1.6000
2023-04-23T02:32:59.437Z,1.4462
2023-04-23T02:34:01.029Z,1.4462
2023-04-23T02:35:02.645Z,1.6615
2023-04-23T02:36:04.308Z,1.7231
2023-04-23T02:37:06.957Z,1.9231
2023-04-23T02:38:07.521Z,1.8154
2023-04-23T02:39:09.102Z,2.0769
2023-04-23T02:40:10.907Z,2.1385
2023-04-23T02:41:12.928Z,1.8615
2023-04-23T02:42:14.204Z,1.6000
2023-04-23T02:43:15.783Z,1.8923
2023-04-23T02:44:17.426Z,1.6923
2023-04-23T02:45:19.088Z,1.8615
2023-04-23T02:46:20.780Z,1.5538
2023-04-23T02:47:22.447Z,1.5692
2023-04-23T02:48:24.031Z,1.5692
2023-04-23T02:49:25.650Z,1.4615
2023-04-23T02:50:27.305Z,1.5692
2023-04-23T02:51:29.509Z,1.6615
2023-04-23T02:52:30.579Z,1.6000
2023-04-23T02:53:32.217Z,1.7538
2023-04-23T02:54:33.829Z,1.6923
2023-04-23T02:55:35.500Z,1.6615
2023-04-23T02:56:37.144Z,1.7077
2023-04-23T02:57:38.932Z,1.8769
2023-04-23T02:58:40.392Z,1.6154
2023-04-23T02:59:42.118Z,1.4923
2023-04-23T03:00:43.725Z,1.6308
2023-04-23T03:01:45.394Z,1.8000
2023-04-23T03:02:47.126Z,1.7385
2023-04-23T03:03:48.869Z,1.7846
2023-04-23T03:04:50.256Z,1.7538
2023-04-23T03:05:51.926Z,1.7077
2023-04-23T03:06:53.639Z,1.8769
2023-04-23T03:07:55.936Z,1.8154
2023-04-23T03:08:56.812Z,1.7231
2023-04-23T03:09:58.539Z,1.7231
2023-04-23T03:11:00.167Z,1.6615
2023-04-23T03:12:02.486Z,2.0308
2023-04-23T03:13:03.454Z,1.6000
2023-04-23T03:14:05.140Z,1.6154
2023-04-23T03:15:06.706Z,1.6154
2023-04-23T03:16:08.934Z,1.5846
2023-04-23T03:17:10.060Z,1.6923
2023-04-23T03:18:11.716Z,1.7692
2023-04-23T03:19:13.345Z,1.8308
2023-04-23T03:20:15.914Z,1.8923
2023-04-23T03:21:16.557Z,1.8615
2023-04-23T03:22:18.307Z,1.6615
2023-04-23T03:23:19.926Z,1.6923
2023-04-23T03:24:21.559Z,1.7231
2023-04-23T03:25:23.117Z,1.8462
2023-04-23T03:26:24.828Z,1.5538
2023-04-23T03:27:26.481Z,1.6308
2023-04-23T03:28:28.162Z,1.7538
2023-04-23T03:29:29.707Z,1.6308
2023-04-23T03:30:31.381Z,1.6769
2023-04-23T03:31:32.975Z,1.7385
2023-04-23T03:32:34.714Z,1.8000
2023-04-23T03:33:36.341Z,2.0923
2023-04-23T03:34:37.952Z,1.7692
2023-04-23T03:35:39.594Z,2.0308
2023-04-23T03:36:41.204Z,1.8154
2023-04-23T03:37:42.907Z,1.9231
2023-04-23T03:38:44.596Z,1.5231
2023-04-23T03:39:46.147Z,1.4000
2023-04-23T03:40:47.843Z,1.5692
2023-04-23T03:41:49.418Z,1.7846
2023-04-23T03:42:51.169Z,1.7385
2023-04-23T03:43:53.430Z,1.8154
2023-04-23T03:44:54.371Z,1.8000
2023-04-23T03:45:56.104Z,1.7385
2023-04-23T03:46:58.402Z,1.6462
2023-04-23T03:47:59.428Z,1.6615
2023-04-23T03:49:01.454Z,1.6923
2023-04-23T03:50:02.604Z,1.9077
2023-04-23T03:51:04.229Z,1.7077
2023-04-23T03:52:05.908Z,1.7538
2023-04-23T03:53:07.596Z,1.6154
2023-04-23T03:54:09.128Z,1.5385
2023-04-23T03:55:10.787Z,1.5231
2023-04-23T03:56:12.397Z,1.5077
2023-04-23T03:57:14.016Z,1.5077
2023-04-23T03:58:15.700Z,1.5538
2023-04-23T03:59:17.333Z,1.5692
2023-04-23T04:00:19.032Z,1.6000
2023-04-23T04:01:20.594Z,1.4615
2023-04-23T04:02:22.408Z,1.6000
2023-04-23T04:03:25.185Z,1.5077
2023-04-23T04:04:25.832Z,1.6462
2023-04-23T04:05:27.309Z,1.6000
2023-04-23T04:06:28.914Z,1.6769
2023-04-23T04:07:30.464Z,1.8154
2023-04-23T04:08:32.133Z,1.8154
2023-04-23T04:09:33.764Z,1.8154
2023-04-23T04:10:35.932Z,1.7846
2023-04-23T04:11:37.410Z,1.6923
2023-04-23T04:12:38.739Z,1.7692
2023-04-23T04:13:40.370Z,1.8462
2023-04-23T04:14:42.301Z,1.8615
2023-04-23T04:15:44.459Z,1.9077
2023-04-23T04:16:45.368Z,2.0462
2023-04-23T04:17:47.017Z,2.0462
2023-04-23T04:18:48.724Z,2.0923
2023-04-23T04:19:50.606Z,2.0615
2023-04-23T04:20:52.031Z,1.9231
2023-04-23T04:21:53.630Z,2.0000
2023-04-23T04:22:55.295Z,1.8923
2023-04-23T04:23:57.980Z,1.8308
2023-04-23T04:24:58.454Z,1.9692
2023-04-23T04:26:00.203Z,2.0000
2023-04-23T04:27:01.869Z,2.1538
2023-04-23T04:28:03.554Z,2.0923
2023-04-23T04:29:05.126Z,2.1692
2023-04-23T04:30:06.880Z,2.0000
2023-04-23T04:31:08.505Z,2.1846
2023-04-23T04:32:10.098Z,2.0308
2023-04-23T04:33:11.770Z,2.0462
2023-04-23T04:34:13.449Z,2.0462
2023-04-23T04:35:14.968Z,2.0769
2023-04-23T04:36:16.703Z,1.9846
2023-04-23T04:37:18.279Z,2.1231
2023-04-23T04:38:19.960Z,2.0308
2023-04-23T04:39:21.583Z,2.0308
2023-04-23T04:40:23.278Z,2.0923
2023-04-23T04:41:24.920Z,2.0769
2023-04-23T04:42:26.534Z,2.0769
2023-04-23T04:43:28.227Z,2.2308
2023-04-23T04:44:29.796Z,2.1077
2023-04-23T04:45:31.509Z,2.2000
2023-04-23T04:46:33.131Z,2.2462
2023-04-23T04:47:34.776Z,2.1231
2023-04-23T04:48:37.377Z,2.1692
2023-04-23T04:49:38.089Z,2.0308
2023-04-23T04:50:39.680Z,2.0769
2023-04-23T04:51:41.293Z,2.0154
2023-04-23T04:52:42.983Z,2.0154
2023-04-23T04:53:44.589Z,2.0000
2023-04-23T04:54:46.226Z,2.0000
2023-04-23T04:55:47.907Z,1.9385
2023-04-23T04:56:49.627Z,1.9231
2023-04-23T04:57:52.200Z,1.9846
2023-04-23T04:58:53.776Z,1.9846
2023-04-23T04:59:55.350Z,1.9692
2023-04-23T05:00:56.098Z,1.9231
2023-04-23T05:01:57.793Z,1.8923
2023-04-23T05:02:59.535Z,1.9385
2023-04-23T05:04:01.109Z,1.8769
2023-04-23T05:05:02.619Z,1.9692
2023-04-23T05:06:04.302Z,1.9538
2023-04-23T05:07:05.925Z,1.8769
2023-04-23T05:08:07.574Z,1.7692
2023-04-23T05:09:09.173Z,1.7231
2023-04-23T05:10:10.931Z,1.8769
2023-04-23T05:11:12.498Z,1.8615
2023-04-23T05:12:14.238Z,1.9538
2023-04-23T05:13:15.855Z,2.0000
2023-04-23T05:14:17.459Z,1.9231
2023-04-23T05:15:19.108Z,2.0000
2023-04-23T05:16:20.871Z,1.9231
2023-04-23T05:17:23.075Z,1.9231
2023-04-23T05:18:24.120Z,1.9385
2023-04-23T05:19:25.647Z,2.0154
2023-04-23T05:20:27.352Z,2.0308
2023-04-23T05:21:29.022Z,2.0000
2023-04-23T05:22:30.670Z,1.9231
2023-04-23T05:23:32.213Z,2.0000
2023-04-23T05:24:33.948Z,1.9538
2023-04-23T05:25:35.580Z,1.9077
2023-04-23T05:26:37.267Z,1.9692
2023-04-23T05:27:38.893Z,1.8923
2023-04-23T05:28:40.517Z,1.9077
2023-04-23T05:29:42.118Z,1.8769
2023-04-23T05:30:43.804Z,1.8154
2023-04-23T05:31:45.498Z,1.8000
2023-04-23T05:32:47.198Z,1.8154
2023-04-23T05:33:50.504Z,1.7692
2023-04-23T05:34:50.372Z,1.7692
2023-04-23T05:35:52.019Z,1.7077
2023-04-23T05:36:53.772Z,1.8000
2023-04-23T05:37:55.373Z,1.8308
2023-04-23T05:38:56.996Z,1.7846
2023-04-23T05:39:58.577Z,1.8000
2023-04-23T05:41:00.291Z,1.8000
2023-04-23T05:42:02.405Z,1.8000
2023-04-23T05:43:03.579Z,1.7692
2023-04-23T05:44:05.185Z,1.8000
2023-04-23T05:45:08.864Z,1.8000
2023-04-23T05:46:08.512Z,1.7846
2023-04-23T05:47:10.203Z,1.7692
2023-04-23T05:48:11.843Z,1.7385
2023-04-23T05:49:13.468Z,1.6923
2023-04-23T05:50:15.092Z,1.8000
2023-04-23T05:51:16.788Z,1.7846
2023-04-23T05:52:18.434Z,1.7692
2023-04-23T05:53:20.162Z,1.8000
2023-04-23T05:54:21.653Z,1.8000
2023-04-23T05:55:23.338Z,1.8000
2023-04-23T05:56:25.058Z,1.7692
2023-04-23T05:57:27.525Z,1.7385
2023-04-23T05:58:28.346Z,1.7538
2023-04-23T05:59:29.978Z,1.7692
2023-04-23T06:00:31.630Z,1.7538
2023-04-23T06:01:33.205Z,1.8000
2023-04-23T06:02:35.042Z,1.7385
2023-04-23T06:03:36.793Z,1.6615
2023-04-23T06:04:38.361Z,1.6923
2023-04-23T06:05:39.835Z,1.6769
2023-04-23T06:06:41.484Z,1.6923
2023-04-23T06:07:43.180Z,1.6615
2023-04-23T06:08:45.063Z,1.7385
2023-04-23T06:09:46.401Z,1.8000
2023-04-23T06:10:48.108Z,1.7692
2023-04-23T06:11:49.683Z,1.7692
2023-04-23T06:12:51.592Z,1.8000
2023-04-23T06:13:53.060Z,1.7385
2023-04-23T06:14:54.689Z,1.7692
2023-04-23T06:15:56.319Z,1.8000
2023-04-23T06:16:57.981Z,1.7538
2023-04-23T06:17:59.666Z,1.7538
2023-04-23T06:19:01.588Z,1.7385
2023-04-23T06:20:02.904Z,1.7692
2023-04-23T06:21:04.566Z,1.7846
2023-04-23T06:22:06.164Z,1.7846
2023-04-23T06:23:07.866Z,1.7846
2023-04-23T06:24:09.504Z,1.7538
2023-04-23T06:25:11.180Z,1.7385
2023-04-23T06:26:12.722Z,1.8000
2023-04-23T06:27:14.421Z,1.8000
2023-04-23T06:28:16.163Z,1.8000
2023-04-23T06:29:17.758Z,1.8000
2023-04-23T06:30:19.374Z,1.8000
2023-04-23T06:31:21.061Z,1.8000
2023-04-23T06:32:22.630Z,1.7846
2023-04-23T06:33:24.284Z,1.7846
2023-04-23T06:34:26.131Z,1.7846
2023-04-23T06:35:27.635Z,1.7692
2023-04-23T06:36:29.166Z,1.7846
2023-04-23T06:37:31.029Z,1.8000
2023-04-23T06:38:32.428Z,1.7538
2023-04-23T06:39:34.183Z,1.8000
2023-04-23T06:40:35.718Z,1.7077
2023-04-23T06:41:37.337Z,1.8000
2023-04-23T06:42:40.096Z,1.7846
2023-04-23T06:43:40.887Z,1.7538
2023-04-23T06:44:42.675Z,1.8000
2023-04-23T06:45:44.232Z,1.7538
2023-04-23T06:46:45.826Z,1.6923
2023-04-23T06:47:48.212Z,1.6923
2023-04-23T06:48:48.999Z,1.7692
2023-04-23T06:49:50.736Z,1.8000
2023-04-23T06:50:52.379Z,1.7692
2023-04-23T06:51:56.975Z,1.8000
2023-04-23T06:52:55.476Z,1.8000
2023-04-23T06:53:57.193Z,1.8000
2023-04-23T06:54:59.862Z,1.8000
2023-04-23T06:56:00.461Z,1.8462
2023-04-23T06:57:02.179Z,1.7846
2023-04-23T06:58:03.753Z,1.5077
2023-04-23T06:59:05.356Z,1.3692
2023-04-23T07:00:07.109Z,1.1692
2023-04-23T07:01:08.701Z,1.0000
2023-04-23T07:02:10.369Z,1.0462
2023-04-23T07:03:11.997Z,1.1385
2023-04-23T07:04:13.669Z,1.2923
2023-04-23T07:05:15.272Z,1.6769
2023-04-23T07:06:18.603Z,2.1538
2023-04-23T07:07:18.508Z,2.3692
2023-04-23T07:08:20.205Z,2.5538
2023-04-23T07:09:21.818Z,2.7231
2023-04-23T07:10:23.560Z,2.8000
2023-04-23T07:11:25.142Z,2.8000
2023-04-23T07:12:26.830Z,2.6308
2023-04-23T07:13:28.442Z,2.2769
2023-04-23T07:14:30.087Z,1.5077
2023-04-23T07:15:31.845Z,1.6000
2023-04-23T07:16:33.480Z,1.5385
2023-04-23T07:17:34.992Z,1.4615
2023-04-23T07:18:36.657Z,1.5846
2023-04-23T07:19:38.288Z,1.8308
2023-04-23T07:20:39.989Z,2.0000
2023-04-23T07:21:41.578Z,2.0000
2023-04-23T07:22:43.232Z,2.0308
2023-04-23T07:23:44.865Z,2.1077
2023-04-23T07:24:46.522Z,2.0000
2023-04-23T07:25:48.183Z,2.0000
2023-04-23T07:26:49.858Z,1.6154
2023-04-23T07:27:51.401Z,1.4000
2023-04-23T07:28:53.183Z,1.4615
2023-04-23T07:29:54.704Z,1.4000
2023-04-23T07:30:56.454Z,1.4154
2023-04-23T07:31:58.077Z,1.5538
2023-04-23T07:32:59.718Z,1.6000
2023-04-23T07:34:01.392Z,1.7846
2023-04-23T07:35:02.975Z,1.8000
2023-04-23T07:36:04.598Z,1.8000
2023-04-23T07:37:06.316Z,1.5385
2023-04-23T07:38:07.860Z,1.4615
2023-04-23T07:39:09.545Z,1.5231
2023-04-23T07:40:11.189Z,1.3846
2023-04-23T07:41:12.914Z,1.3846
2023-04-23T07:42:15.068Z,1.4000
2023-04-23T07:43:16.142Z,1.5231
2023-04-23T07:44:17.761Z,1.6000
2023-04-23T07:45:19.500Z,1.6000
2023-04-23T07:46:21.146Z,1.6000
2023-04-23T07:47:23.002Z,1.6000
2023-04-23T07:48:24.413Z,1.6000
2023-04-23T07:49:26.021Z,1.3077
2023-04-23T07:50:27.637Z,1.4154
2023-04-23T07:51:29.351Z,1.3385
2023-04-23T07:52:30.957Z,1.2462
2023-04-23T07:53:32.577Z,1.2000
2023-04-23T07:54:34.207Z,1.3077
2023-04-23T07:55:35.917Z,1.4000
2023-04-23T07:56:37.597Z,1.4000
2023-04-23T07:57:39.241Z,1.4000
2023-04-23T07:58:40.815Z,1.4000
2023-04-23T07:59:42.863Z,1.4000
2023-04-23T08:00:44.088Z,1.4000
2023-04-23T08:01:45.820Z,1.4000
2023-04-23T08:02:47.614Z,1.4000
2023-04-23T08:03:49.440Z,1.4000
2023-04-23T08:04:50.827Z,1.4000
2023-04-23T08:05:52.336Z,1.4000
2023-04-23T08:06:54.045Z,1.3846
2023-04-23T08:07:55.645Z,1.3385
2023-04-23T08:08:57.308Z,1.2000
2023-04-23T08:09:58.900Z,1.4000
2023-04-23T08:11:00.547Z,1.2923
2023-04-23T08:12:02.236Z,1.2000
2023-04-23T08:13:03.902Z,1.2923
2023-04-23T08:14:05.496Z,1.2000
2023-04-23T08:15:07.220Z,1.2462
2023-04-23T08:16:08.790Z,1.2000
2023-04-23T08:17:10.463Z,1.2000
2023-04-23T08:18:12.107Z,1.2000
2023-04-23T08:19:13.706Z,1.2000
2023-04-23T08:20:15.302Z,1.2000
2023-04-23T08:21:17.031Z,1.2000
2023-04-23T08:22:20.293Z,1.2000
2023-04-23T08:23:20.353Z,1.2000
2023-04-23T08:24:22.456Z,1.2000
2023-04-23T08:25:23.603Z,1.2000
2023-04-23T08:26:25.214Z,1.2000
2023-04-23T08:27:26.971Z,1.2308
2023-04-23T08:28:28.593Z,1.2154
2023-04-23T08:29:30.208Z,1.2000
2023-04-23T08:30:31.789Z,1.2000
2023-04-23T08:31:33.509Z,1.2308
2023-04-23T08:32:35.158Z,1.2000
2023-04-23T08:33:36.875Z,1.2769
2023-04-23T08:34:38.442Z,1.2308
2023-04-23T08:35:40.078Z,1.2615
2023-04-23T08:36:41.649Z,1.3538
2023-04-23T08:37:43.444Z,1.2615
2023-04-23T08:38:44.989Z,1.3538
2023-04-23T08:39:46.686Z,1.2923
2023-04-23T08:40:48.227Z,1.3846
2023-04-23T08:41:49.926Z,1.4000
2023-04-23T08:42:51.644Z,1.4000
2023-04-23T08:43:53.238Z,1.4000
2023-04-23T08:44:54.801Z,1.4000
2023-04-23T08:45:56.510Z,1.3846
2023-04-23T08:46:58.248Z,1.4000
2023-04-23T08:48:02.134Z,1.4000
2023-04-23T08:49:01.452Z,1.4000
2023-04-23T08:50:03.074Z,1.4000
2023-04-23T08:51:04.690Z,1.3385
2023-04-23T08:52:06.380Z,1.3538
2023-04-23T08:53:08.065Z,1.0769
2023-04-23T08:54:09.679Z,1.0000
2023-04-23T08:55:11.255Z,0.9846
2023-04-23T08:56:12.940Z,0.8000
2023-04-23T08:57:14.574Z,0.9231
2023-04-23T08:58:16.279Z,1.2000
2023-04-23T08:59:17.911Z,1.3385
2023-04-23T09:00:19.455Z,1.2154
2023-04-23T09:01:21.297Z,1.2000
2023-04-23T09:02:22.986Z,1.2000
2023-04-23T09:03:24.547Z,1.3385
2023-04-23T09:04:26.164Z,1.3231
2023-04-23T09:05:27.710Z,1.4923
2023-04-23T09:06:29.422Z,1.5077
2023-04-23T09:07:31.023Z,1.4923
2023-04-23T09:08:32.753Z,1.5385
2023-04-23T09:09:34.641Z,1.5077
2023-04-23T09:10:35.974Z,1.5846
2023-04-23T09:11:37.577Z,1.5385
2023-04-23T09:12:39.276Z,1.6000
2023-04-23T09:13:40.950Z,1.6000
2023-04-23T09:14:42.852Z,1.6000
2023-04-23T09:15:44.169Z,1.6000
2023-04-23T09:16:45.922Z,1.6000
2023-04-23T09:17:47.529Z,1.6000
2023-04-23T09:18:49.194Z,1.4923
2023-04-23T09:19:50.858Z,1.4154
2023-04-23T09:20:52.528Z,1.4000
2023-04-23T09:21:54.046Z,1.4000
2023-04-23T09:22:55.727Z,1.2769
2023-04-23T09:23:57.449Z,1.3538
2023-04-23T09:24:59.090Z,1.4000
2023-04-23T09:26:00.627Z,1.4000
2023-04-23T09:27:02.267Z,1.2923
2023-04-23T09:28:03.958Z,1.4000
2023-04-23T09:29:05.609Z,1.3385
2023-04-23T09:30:07.294Z,1.3692
2023-04-23T09:31:08.879Z,1.4000
2023-04-23T09:32:10.586Z,1.4000
2023-04-23T09:33:12.151Z,1.3231
2023-04-23T09:34:14.206Z,1.3077
2023-04-23T09:35:15.554Z,1.2615
2023-04-23T09:36:17.233Z,1.3846
2023-04-23T09:37:18.783Z,1.2462
2023-04-23T09:38:20.428Z,1.3846
2023-04-23T09:39:22.065Z,1.2615
2023-04-23T09:40:23.749Z,1.2308
2023-04-23T09:41:25.304Z,1.5231
2023-04-23T09:42:26.986Z,1.3231
2023-04-23T09:43:28.575Z,1.4000
2023-04-23T09:44:30.353Z,1.3077
2023-04-23T09:45:31.945Z,1.3846
2023-04-23T09:46:33.562Z,1.3846
2023-04-23T09:47:35.252Z,1.4000
2023-04-23T09:48:36.879Z,1.3692
2023-04-23T09:49:38.534Z,1.3692
2023-04-23T09:50:40.245Z,1.3077
2023-04-23T09:51:41.769Z,1.3846
2023-04-23T09:52:43.431Z,1.3538
2023-04-23T09:53:45.056Z,1.4154
2023-04-23T09:54:47.214Z,1.1385
2023-04-23T09:55:48.397Z,1.0000
2023-04-23T09:56:50.076Z,0.8923
2023-04-23T09:57:51.611Z,0.8000
2023-04-23T09:58:53.366Z,0.8000
2023-04-23T10:00:03.754Z,0.8308
2023-04-23T10:00:56.638Z,1.0000
2023-04-23T10:01:58.289Z,1.1385
2023-04-23T10:03:00.168Z,1.5692
2023-04-23T10:04:01.694Z,1.8308
2023-04-23T10:05:21.468Z,1.9692
2023-04-23T10:06:05.264Z,2.0000
2023-04-23T10:07:17.923Z,2.0000
2023-04-23T10:08:08.232Z,2.0000
2023-04-23T10:09:09.704Z,2.0000
2023-04-23T10:10:11.463Z,2.1538
2023-04-23T10:11:20.734Z,2.0923
2023-04-23T10:13:16.302Z,2.2308
2023-04-23T10:14:17.962Z,2.0615
2023-04-23T10:15:19.684Z,1.7846
2023-04-23T10:16:23.284Z,1.5846
2023-04-23T10:17:22.932Z,1.3692
2023-04-23T10:18:24.492Z,1.2000
2023-04-23T10:19:27.171Z,1.2462
2023-04-23T10:20:27.878Z,1.0615
2023-04-23T10:21:36.620Z,1.0000
2023-04-23T10:22:31.067Z,1.0000
2023-04-23T10:23:32.802Z,1.0000
2023-04-23T10:24:34.371Z,1.0000
2023-04-23T10:25:36.729Z,1.0769
2023-04-23T10:26:38.190Z,1.2154
2023-04-23T10:27:51.118Z,1.3231
2023-04-23T10:28:41.042Z,1.2923
2023-04-23T10:29:43.017Z,1.4462
2023-04-23T10:30:44.681Z,1.4923
2023-04-23T10:31:45.980Z,1.2923
2023-04-23T10:32:47.561Z,1.2923
2023-04-23T10:33:58.204Z,1.3231
2023-04-23T10:34:50.931Z,1.2000
2023-04-23T10:35:52.601Z,1.2308
2023-04-23T10:36:54.181Z,1.2154
2023-04-23T10:37:55.844Z,1.3077
2023-04-23T10:38:59.106Z,1.2923
2023-04-23T10:39:59.132Z,1.2462
2023-04-23T10:41:00.801Z,1.2000
2023-04-23T10:42:02.466Z,1.2000
2023-04-23T10:43:04.026Z,1.2000
2023-04-23T10:44:05.723Z,1.2923
2023-04-23T10:45:16.613Z,1.3077
2023-04-23T10:46:09.139Z,1.2000
2023-04-23T10:47:10.738Z,1.2000
2023-04-23T10:48:12.460Z,1.2000
2023-04-23T10:49:14.016Z,1.2000
2023-04-23T10:50:15.744Z,1.2000
2023-04-23T10:51:56.084Z,1.0462
2023-04-23T10:52:21.495Z,1.0615
2023-04-23T10:53:20.604Z,1.0923
2023-04-23T10:54:22.319Z,1.0308
2023-04-23T10:55:23.969Z,1.1231
2023-04-23T10:56:25.789Z,1.0615
2023-04-23T10:57:27.271Z,1.0308
2023-04-23T10:58:28.943Z,1.2308
2023-04-23T10:59:30.465Z,1.1692
2023-04-23T11:00:32.164Z,1.0000
2023-04-23T11:01:33.827Z,1.0000
2023-04-23T11:02:35.607Z,1.0000
2023-04-23T11:03:39.646Z,1.0000
2023-04-23T11:04:38.834Z,1.0154
2023-04-23T11:05:40.389Z,1.0308
2023-04-23T11:06:42.089Z,1.0000
2023-04-23T11:07:43.750Z,1.0000
2023-04-23T11:08:45.426Z,1.0154
2023-04-23T11:09:47.013Z,1.0000
2023-04-23T11:10:48.667Z,1.0000
2023-04-23T11:11:50.288Z,1.0000
2023-04-23T11:12:52.027Z,1.0000
2023-04-23T11:13:53.621Z,1.0000
2023-04-23T11:14:55.307Z,1.0000
2023-04-23T11:15:56.907Z,1.0000
2023-04-23T11:16:58.530Z,1.0000
2023-04-23T11:18:00.216Z,1.0000
2023-04-23T11:19:01.911Z,1.0000
2023-04-23T11:20:03.558Z,0.9077
2023-04-23T11:21:05.187Z,0.8000
2023-04-23T11:22:06.767Z,1.0000
2023-04-23T11:23:08.462Z,1.0000
2023-04-23T11:24:10.097Z,1.0308
2023-04-23T11:25:11.842Z,1.1077
2023-04-23T11:26:13.424Z,1.0000
2023-04-23T11:27:15.044Z,1.0000
2023-04-23T11:28:16.694Z,1.0000
2023-04-23T11:29:18.339Z,1.0000
2023-04-23T11:30:19.962Z,1.0000
2023-04-23T11:31:21.656Z,1.0000
2023-04-23T11:32:23.298Z,1.0000
2023-04-23T11:33:24.927Z,1.0000
2023-04-23T11:34:26.604Z,1.0000
2023-04-23T11:35:28.167Z,0.9077
2023-04-23T11:36:30.699Z,0.8000
2023-04-23T11:37:31.480Z,0.8308
2023-04-23T11:38:33.056Z,0.8615
2023-04-23T11:39:34.733Z,0.8462
2023-04-23T11:40:36.643Z,0.9846
2023-04-23T11:41:38.087Z,0.8154
2023-04-23T11:42:39.664Z,0.8000
2023-04-23T11:43:42.212Z,0.8000
2023-04-23T11:44:42.972Z,0.8000
2023-04-23T11:45:44.701Z,0.8000
2023-04-23T11:46:46.272Z,0.8000
2023-04-23T11:47:47.962Z,0.8000
2023-04-23T11:48:49.562Z,0.8000
2023-04-23T11:49:51.271Z,0.8923
2023-04-23T11:50:53.130Z,0.8154
2023-04-23T11:51:54.611Z,0.8000
2023-04-23T11:52:56.201Z,0.8000
2023-04-23T11:53:57.906Z,0.8000
2023-04-23T11:54:59.467Z,0.8000
2023-04-23T11:56:01.219Z,0.8000
2023-04-23T11:57:02.788Z,0.8000
2023-04-23T11:58:04.472Z,0.8000
2023-04-23T11:59:06.069Z,0.8000
2023-04-23T12:00:07.763Z,0.8923
2023-04-23T12:01:09.448Z,0.8308
2023-04-23T12:02:11.100Z,0.8000
2023-04-23T12:03:12.936Z,0.8000
2023-04-23T12:04:14.662Z,0.8000
2023-04-23T12:05:16.154Z,0.8000
2023-04-23T12:06:17.883Z,0.8000
2023-04-23T12:07:26.341Z,0.8000
2023-04-23T12:08:21.140Z,0.9077
2023-04-23T12:09:23.725Z,0.8000
2023-04-23T12:10:24.392Z,0.8000
2023-04-23T12:11:26.122Z,0.8000
2023-04-23T12:12:27.738Z,0.8000
2023-04-23T12:13:29.407Z,0.8000
2023-04-23T12:14:31.176Z,0.8000
2023-04-23T12:15:32.780Z,0.8615
2023-04-23T12:16:34.271Z,0.8000
2023-04-23T12:17:35.997Z,0.8615
2023-04-23T12:18:37.680Z,0.8000
2023-04-23T12:19:39.380Z,0.8000
2023-04-23T12:20:40.888Z,0.8000
2023-04-23T12:21:42.685Z,0.7538
2023-04-23T12:22:44.193Z,0.6615
2023-04-23T12:23:45.915Z,0.6769
2023-04-23T12:24:47.416Z,0.7692
2023-04-23T12:25:49.193Z,0.8000
2023-04-23T12:26:50.810Z,0.8000
2023-04-23T12:27:52.459Z,0.8000
2023-04-23T12:28:54.914Z,0.8000
2023-04-23T12:29:55.751Z,0.8000
2023-04-23T12:30:57.348Z,0.8000
2023-04-23T12:31:59.134Z,0.8000
2023-04-23T12:33:00.684Z,0.8000
2023-04-23T12:34:02.465Z,0.8000
2023-04-23T12:35:03.934Z,0.8000
2023-04-23T12:36:05.631Z,0.8000
2023-04-23T12:37:07.307Z,0.8000
2023-04-23T12:38:09.008Z,0.8000
2023-04-23T12:39:10.632Z,0.8000
2023-04-23T12:40:12.228Z,0.8000
2023-04-23T12:41:13.895Z,0.8000
2023-04-23T12:42:16.515Z,0.6923
2023-04-23T12:43:17.442Z,0.6769
2023-04-23T12:44:18.885Z,0.7231
2023-04-23T12:45:20.506Z,0.6308
2023-04-23T12:46:22.158Z,0.6000
2023-04-23T12:47:24.631Z,0.6000
2023-04-23T12:48:25.468Z,0.6154
2023-04-23T12:49:27.261Z,0.7385
2023-04-23T12:50:28.828Z,0.7846